createdAt,value
2023-04-15T00:01:22.938Z,8.62
2023-04-15T00:03:55.577Z,8.59
2023-04-15T00:06:28.727Z,8.62
2023-04-15T00:08:59.182Z,8.62
2023-04-15T00:11:29.774Z,8.62
2023-04-15T00:14:00.549Z,8.60
2023-04-15T00:16:30.841Z,8.58
2023-04-15T00:19:01.273Z,8.63
2023-04-15T00:21:34.634Z,8.65
2023-04-15T00:24:04.821Z,8.72
2023-04-15T00:26:35.991Z,8.72
2023-04-15T00:29:09.576Z,8.72
2023-04-15T00:31:39.825Z,8.72
2023-04-15T00:34:10.164Z,8.69
2023-04-15T00:36:43.130Z,8.69
2023-04-15T00:39:13.834Z,8.61
2023-04-15T00:41:46.482Z,8.60
2023-04-15T00:44:19.097Z,8.62
2023-04-15T00:46:51.753Z,8.65
2023-04-15T00:49:22.077Z,8.63
2023-04-15T00:51:55.063Z,8.64
2023-04-15T00:54:25.345Z,8.68
2023-04-15T00:56:55.614Z,8.68
2023-04-15T00:59:25.974Z,8.69
2023-04-15T01:01:56.803Z,8.65
2023-04-15T01:04:27.699Z,8.68
2023-04-15T01:07:00.763Z,8.70
2023-04-15T01:09:31.128Z,8.75
2023-04-15T01:12:02.799Z,8.72
2023-04-15T01:14:33.727Z,8.74
2023-04-15T01:17:04.027Z,8.72
2023-04-15T01:19:34.477Z,8.63
2023-04-15T01:22:10.466Z,8.65
2023-04-15T01:24:42.006Z,8.62
2023-04-15T01:27:15.221Z,8.63
2023-04-15T01:29:45.627Z,8.61
2023-04-15T01:32:16.030Z,8.62
2023-04-15T01:34:46.331Z,8.63
2023-04-15T01:37:16.592Z,8.65
2023-04-15T01:39:46.964Z,8.62
2023-04-15T01:42:19.876Z,8.61
2023-04-15T01:44:50.114Z,8.61
2023-04-15T01:47:20.441Z,8.57
2023-04-15T01:49:51.257Z,8.62
2023-04-15T01:52:21.521Z,8.57
2023-04-15T01:54:51.726Z,8.51
2023-04-15T01:57:24.908Z,8.48
2023-04-15T01:59:55.322Z,8.46
2023-04-15T02:02:26.040Z,8.43
2023-04-15T02:04:58.615Z,8.39
2023-04-15T02:07:32.459Z,8.47
2023-04-15T02:10:03.294Z,8.44
2023-04-15T02:12:36.203Z,8.47
2023-04-15T02:15:07.423Z,8.45
2023-04-15T02:17:38.244Z,8.43
2023-04-15T02:20:10.809Z,8.47
2023-04-15T02:22:43.869Z,8.48
2023-04-15T02:25:14.619Z,8.48
2023-04-15T02:27:47.479Z,8.51
2023-04-15T02:30:19.618Z,8.51
2023-04-15T02:32:50.218Z,8.49
2023-04-15T02:35:21.293Z,8.50
2023-04-15T02:37:51.583Z,8.49
2023-04-15T02:40:22.196Z,8.56
2023-04-15T02:42:55.064Z,8.57
2023-04-15T02:45:27.811Z,8.56
2023-04-15T02:47:58.293Z,8.53
2023-04-15T02:50:29.255Z,8.51
2023-04-15T02:53:01.767Z,8.55
2023-04-15T02:55:32.814Z,8.53
2023-04-15T02:58:06.333Z,8.60
2023-04-15T03:00:36.967Z,8.60
2023-04-15T03:03:09.351Z,8.58
2023-04-15T03:05:40.620Z,8.67
2023-04-15T03:08:11.623Z,8.59
2023-04-15T03:10:41.898Z,8.62
2023-04-15T03:13:14.692Z,8.65
2023-04-15T03:15:45.113Z,8.65
2023-04-15T03:18:15.819Z,8.61
2023-04-15T03:20:46.365Z,8.58
2023-04-15T03:23:16.996Z,8.54
2023-04-15T03:25:48.479Z,8.54
2023-04-15T03:28:21.935Z,8.57
2023-04-15T03:30:55.145Z,8.60
2023-04-15T03:33:25.617Z,8.57
2023-04-15T03:35:56.819Z,8.55
2023-04-15T03:38:27.335Z,8.55
2023-04-15T03:40:57.585Z,8.58
2023-04-15T03:43:30.674Z,8.60
2023-04-15T03:46:01.929Z,8.60
2023-04-15T03:48:32.286Z,8.59
2023-04-15T03:51:02.488Z,8.58
2023-04-15T03:53:32.702Z,8.54
2023-04-15T03:56:03.024Z,8.51
2023-04-15T03:58:36.121Z,8.51
2023-04-15T04:01:06.516Z,8.54
2023-04-15T04:03:37.550Z,8.58
2023-04-15T04:06:08.277Z,8.50
2023-04-15T04:08:38.539Z,8.49
2023-04-15T04:11:08.727Z,8.49
2023-04-15T04:13:41.721Z,8.52
2023-04-15T04:16:12.059Z,8.46
2023-04-15T04:18:42.347Z,8.48
2023-04-15T04:21:12.549Z,8.45
2023-04-15T04:23:42.872Z,8.45
2023-04-15T04:26:13.086Z,8.49
2023-04-15T04:28:45.966Z,8.51
2023-04-15T04:31:16.458Z,8.57
2023-04-15T04:33:46.888Z,8.48
2023-04-15T04:36:17.297Z,8.49
2023-04-15T04:38:47.561Z,8.50
2023-04-15T04:41:17.964Z,8.47
2023-04-15T04:43:51.216Z,8.50
2023-04-15T04:46:21.975Z,8.49
2023-04-15T04:48:52.304Z,8.49
2023-04-15T04:51:22.624Z,8.47
2023-04-15T04:53:53.097Z,8.52
2023-04-15T04:56:23.321Z,8.48
2023-04-15T04:58:56.136Z,8.52
2023-04-15T05:01:26.950Z,8.42
2023-04-15T05:03:57.319Z,8.39
2023-04-15T05:06:27.948Z,8.32
2023-04-15T05:08:58.299Z,8.32
2023-04-15T05:11:28.877Z,8.33
2023-04-15T05:14:02.578Z,8.36
2023-04-15T05:16:32.773Z,8.37
2023-04-15T05:19:03.141Z,8.43
2023-04-15T05:21:34.082Z,8.50
2023-04-15T05:24:04.550Z,8.50
2023-04-15T05:26:34.811Z,8.56
2023-04-15T05:29:08.138Z,8.60
2023-04-15T05:31:39.006Z,8.62
2023-04-15T05:34:09.544Z,8.71
2023-04-15T05:36:39.749Z,8.74
2023-04-15T05:39:09.923Z,8.63
2023-04-15T05:41:40.087Z,8.57
2023-04-15T05:44:13.018Z,8.59
2023-04-15T05:46:43.610Z,8.55
2023-04-15T05:49:13.940Z,8.54
2023-04-15T05:51:44.147Z,8.65
2023-04-15T05:54:14.373Z,8.65
2023-04-15T05:56:44.638Z,8.74
2023-04-15T05:59:17.684Z,8.70
2023-04-15T06:01:48.331Z,8.70
2023-04-15T06:04:18.667Z,8.59
2023-04-15T06:06:48.946Z,8.59
2023-04-15T06:09:19.178Z,8.71
2023-04-15T06:11:49.356Z,8.49
2023-04-15T06:14:22.185Z,8.52
2023-04-15T06:16:52.514Z,8.62
2023-04-15T06:19:22.804Z,8.58
2023-04-15T06:21:53.085Z,8.62
2023-04-15T06:24:23.325Z,8.61
2023-04-15T06:26:53.718Z,8.48
2023-04-15T06:29:26.893Z,8.62
2023-04-15T06:31:57.201Z,8.69
2023-04-15T06:34:27.692Z,8.64
2023-04-15T06:36:58.000Z,8.71
2023-04-15T06:39:28.259Z,8.81
2023-04-15T06:41:58.437Z,8.81
2023-04-15T06:44:32.597Z,8.80
2023-04-15T06:47:03.961Z,8.79
2023-04-15T06:49:34.156Z,8.87
2023-04-15T06:52:05.206Z,8.83
2023-04-15T06:54:35.398Z,8.81
2023-04-15T06:57:05.672Z,8.75
2023-04-15T06:59:38.645Z,8.71
2023-04-15T07:02:08.905Z,8.63
2023-04-15T07:04:40.473Z,8.82
2023-04-15T07:07:11.141Z,8.84
2023-04-15T07:09:41.933Z,8.87
2023-04-15T07:12:12.213Z,9.02
2023-04-15T07:14:45.341Z,9.12
2023-04-15T07:17:15.517Z,9.00
2023-04-15T07:19:45.771Z,8.90
2023-04-15T07:22:16.286Z,8.61
2023-04-15T07:24:46.514Z,8.59
2023-04-15T07:27:17.765Z,8.67
2023-04-15T07:29:52.323Z,8.63
2023-04-15T07:32:22.795Z,8.77
2023-04-15T07:34:53.766Z,8.75
2023-04-15T07:37:24.410Z,8.90
2023-04-15T07:39:54.790Z,8.88
2023-04-15T07:42:25.217Z,8.95
2023-04-15T07:44:58.190Z,8.97
2023-04-15T07:47:28.806Z,8.96
2023-04-15T07:49:59.099Z,8.92
2023-04-15T07:52:29.381Z,8.91
2023-04-15T07:54:59.634Z,9.01
2023-04-15T07:57:29.866Z,8.89
2023-04-15T08:00:04.339Z,9.00
2023-04-15T08:02:43.552Z,9.03
2023-04-15T08:05:14.303Z,9.19
2023-04-15T08:07:44.875Z,9.34
2023-04-15T08:10:15.112Z,9.37
2023-04-15T08:12:49.266Z,9.41
2023-04-15T08:15:22.519Z,9.29
2023-04-15T08:17:52.768Z,9.31
2023-04-15T08:20:23.922Z,9.45
2023-04-15T08:22:54.233Z,9.40
2023-04-15T08:25:24.462Z,9.32
2023-04-15T08:27:54.777Z,9.39
2023-04-15T08:30:28.337Z,9.59
2023-04-15T08:32:58.655Z,9.68
2023-04-15T08:35:29.138Z,9.81
2023-04-15T08:37:59.254Z,9.94
2023-04-15T08:40:34.257Z,10.00
2023-04-15T08:43:06.798Z,10.02
2023-04-15T08:45:42.108Z,10.18
2023-04-15T08:48:13.725Z,10.14
2023-04-15T08:50:44.133Z,10.25
2023-04-15T08:53:15.034Z,10.35
2023-04-15T08:55:48.617Z,10.57
2023-04-15T08:58:19.944Z,10.67
2023-04-15T09:00:52.876Z,10.67
2023-04-15T09:03:23.978Z,10.52
2023-04-15T09:05:54.312Z,10.70
2023-04-15T09:08:24.646Z,10.76
2023-04-15T09:10:55.111Z,10.81
2023-04-15T09:13:25.772Z,10.79
2023-04-15T09:15:58.871Z,10.72
2023-04-15T09:18:33.349Z,10.86
2023-04-15T09:21:11.594Z,10.87
2023-04-15T09:23:43.263Z,11.01
2023-04-15T09:26:13.492Z,11.09
2023-04-15T09:28:47.134Z,11.16
2023-04-15T09:31:20.116Z,11.25
2023-04-15T09:33:59.052Z,11.32
2023-04-15T09:36:30.172Z,11.54
2023-04-15T09:39:01.345Z,11.76
2023-04-15T09:41:31.646Z,11.77
2023-04-15T09:44:02.137Z,11.49
2023-04-15T09:46:48.564Z,11.43
2023-04-15T09:49:19.774Z,11.77
2023-04-15T09:52:04.114Z,12.03
2023-04-15T09:54:41.855Z,11.99
2023-04-15T09:57:13.419Z,11.98
2023-04-15T09:59:43.634Z,11.95
2023-04-15T10:02:17.288Z,11.92
2023-04-15T10:04:48.879Z,11.93
2023-04-15T10:07:20.806Z,11.88
2023-04-15T10:09:52.247Z,11.89
2023-04-15T10:12:23.283Z,11.88
2023-04-15T10:14:56.918Z,11.77
2023-04-15T10:17:33.905Z,11.57
2023-04-15T10:20:05.032Z,11.56
2023-04-15T10:22:35.807Z,11.51
2023-04-15T10:25:06.333Z,11.53
2023-04-15T10:27:37.086Z,11.50
2023-04-15T10:30:09.786Z,11.71
2023-04-15T10:32:43.030Z,11.78
2023-04-15T10:35:13.741Z,11.91
2023-04-15T10:37:43.966Z,11.96
2023-04-15T10:40:31.759Z,11.74
2023-04-15T10:43:03.537Z,11.70
2023-04-15T10:45:37.390Z,11.85
2023-04-15T10:48:11.753Z,11.86
2023-04-15T10:50:42.350Z,11.83
2023-04-15T10:53:14.232Z,11.70
2023-04-15T10:55:44.496Z,11.75
2023-04-15T10:58:15.409Z,11.72
2023-04-15T11:00:53.684Z,11.74
2023-04-15T11:03:43.440Z,11.57
2023-04-15T11:06:16.607Z,11.69
2023-04-15T11:09:03.594Z,11.79
2023-04-15T11:12:03.783Z,11.78
2023-04-15T11:14:36.266Z,11.81
2023-04-15T11:17:07.336Z,11.86
2023-04-15T11:19:43.929Z,11.73
2023-04-15T11:22:14.833Z,11.67
2023-04-15T11:24:52.177Z,11.58
2023-04-15T11:27:26.358Z,11.66
2023-04-15T11:29:56.586Z,11.79
2023-04-15T11:32:26.829Z,11.74
2023-04-15T11:34:59.735Z,11.87
2023-04-15T11:37:33.971Z,11.94
2023-04-15T11:40:06.176Z,11.94
2023-04-15T11:42:48.706Z,11.90
2023-04-15T11:45:19.708Z,11.77
2023-04-15T11:47:49.999Z,11.64
2023-04-15T11:50:24.890Z,11.21
2023-04-15T11:52:58.866Z,10.89
2023-04-15T11:55:29.855Z,11.06
2023-04-15T11:58:11.604Z,11.17
2023-04-15T12:00:42.892Z,11.26
2023-04-15T12:03:31.672Z,11.34
2023-04-15T12:06:25.829Z,11.52
2023-04-15T12:09:00.448Z,11.69
2023-04-15T12:11:33.168Z,11.56
2023-04-15T12:14:07.653Z,11.71
2023-04-15T12:16:48.009Z,11.71
2023-04-15T12:19:22.896Z,11.66
2023-04-15T12:22:01.036Z,11.75
2023-04-15T12:24:34.654Z,11.71
2023-04-15T12:27:06.949Z,11.66
2023-04-15T12:29:38.886Z,11.60
2023-04-15T12:32:10.687Z,11.56
2023-04-15T12:34:42.389Z,11.44
2023-04-15T12:37:16.215Z,11.56
2023-04-15T12:39:49.006Z,11.57
2023-04-15T12:42:20.613Z,11.62
2023-04-15T12:44:51.001Z,11.61
2023-04-15T12:47:21.265Z,11.53
2023-04-15T12:49:51.855Z,11.53
2023-04-15T12:52:25.382Z,11.61
2023-04-15T12:54:56.864Z,11.53
2023-04-15T12:57:27.088Z,11.42
2023-04-15T12:59:57.469Z,11.42
2023-04-15T13:02:29.291Z,11.66
2023-04-15T13:04:59.636Z,11.70
2023-04-15T13:07:32.523Z,11.74
2023-04-15T13:10:02.867Z,11.64
2023-04-15T13:12:36.610Z,11.55
2023-04-15T13:15:07.469Z,11.57
2023-04-15T13:17:38.994Z,11.46
2023-04-15T13:20:10.947Z,11.40
2023-04-15T13:22:43.933Z,11.44
2023-04-15T13:25:14.747Z,11.51
2023-04-15T13:27:45.017Z,11.63
2023-04-15T13:30:16.233Z,11.47
2023-04-15T13:32:48.707Z,11.42
2023-04-15T13:35:20.292Z,11.52
2023-04-15T13:37:53.309Z,11.30
2023-04-15T13:40:23.727Z,11.30
2023-04-15T13:42:55.185Z,11.35
2023-04-15T13:45:25.571Z,11.30
2023-04-15T13:48:01.413Z,11.26
2023-04-15T13:50:32.220Z,11.38
2023-04-15T13:53:05.364Z,11.57
2023-04-15T13:55:36.013Z,11.82
2023-04-15T13:58:06.448Z,11.99
2023-04-15T14:00:36.741Z,12.01
2023-04-15T14:03:07.460Z,12.01
2023-04-15T14:05:37.824Z,11.87
2023-04-15T14:08:10.741Z,11.79
2023-04-15T14:10:42.080Z,11.84
2023-04-15T14:13:12.360Z,11.84
2023-04-15T14:15:42.591Z,11.80
2023-04-15T14:18:13.058Z,11.90
2023-04-15T14:20:43.386Z,12.15
2023-04-15T14:23:16.407Z,11.98
2023-04-15T14:25:48.348Z,12.00
2023-04-15T14:28:19.141Z,12.23
2023-04-15T14:30:49.511Z,12.36
2023-04-15T14:33:20.025Z,12.48
2023-04-15T14:35:52.530Z,12.52
2023-04-15T14:38:25.577Z,12.52
2023-04-15T14:40:55.817Z,12.51
2023-04-15T14:43:26.143Z,12.54
2023-04-15T14:45:56.335Z,12.41
2023-04-15T14:48:26.753Z,12.34
2023-04-15T14:50:57.226Z,12.31
2023-04-15T14:53:30.190Z,12.26
2023-04-15T14:56:00.458Z,12.08
2023-04-15T14:58:30.783Z,12.06
2023-04-15T15:01:02.149Z,12.09
2023-04-15T15:03:32.713Z,12.18
2023-04-15T15:06:03.109Z,12.25
2023-04-15T15:08:37.138Z,12.46
2023-04-15T15:11:07.551Z,12.59
2023-04-15T15:13:38.155Z,12.54
2023-04-15T15:16:09.351Z,12.54
2023-04-15T15:18:39.756Z,12.54
2023-04-15T15:21:09.995Z,12.52
2023-04-15T15:23:42.785Z,12.50
2023-04-15T15:26:16.070Z,12.44
2023-04-15T15:28:46.357Z,12.48
2023-04-15T15:31:16.718Z,12.55
2023-04-15T15:33:47.094Z,12.62
2023-04-15T15:36:17.377Z,12.55
2023-04-15T15:38:50.329Z,12.62
2023-04-15T15:41:21.501Z,12.68
2023-04-15T15:43:51.737Z,12.73
2023-04-15T15:46:24.450Z,12.83
2023-04-15T15:48:54.908Z,12.98
2023-04-15T15:51:25.237Z,13.06
2023-04-15T15:53:58.193Z,13.16
2023-04-15T15:56:28.413Z,13.28
2023-04-15T15:58:58.850Z,13.27
2023-04-15T16:01:29.294Z,13.33
2023-04-15T16:04:02.338Z,13.39
2023-04-15T16:06:34.869Z,13.39
2023-04-15T16:09:08.104Z,13.39
2023-04-15T16:11:38.323Z,13.45
2023-04-15T16:14:08.931Z,13.39
2023-04-15T16:16:42.032Z,13.35
2023-04-15T16:19:13.548Z,13.22
2023-04-15T16:21:44.000Z,13.08
2023-04-15T16:24:16.928Z,13.08
2023-04-15T16:26:47.278Z,13.06
2023-04-15T16:29:17.477Z,12.99
2023-04-15T16:31:50.346Z,12.90
2023-04-15T16:34:20.615Z,12.86
2023-04-15T16:36:50.866Z,12.81
2023-04-15T16:39:24.231Z,12.69
2023-04-15T16:41:57.613Z,12.70
2023-04-15T16:44:28.157Z,12.70
2023-04-15T16:46:58.423Z,12.63
2023-04-15T16:49:28.601Z,12.56
2023-04-15T16:51:58.864Z,12.52
2023-04-15T16:54:36.462Z,12.44
2023-04-15T16:57:06.959Z,12.42
2023-04-15T16:59:37.234Z,12.35
2023-04-15T17:02:07.512Z,12.28
2023-04-15T17:04:38.028Z,12.06
2023-04-15T17:07:09.072Z,11.87
2023-04-15T17:09:42.651Z,11.78
2023-04-15T17:12:12.983Z,11.66
2023-04-15T17:14:43.241Z,11.54
2023-04-15T17:17:13.485Z,11.53
2023-04-15T17:19:43.787Z,11.45
2023-04-15T17:22:14.185Z,11.36
2023-04-15T17:24:47.129Z,11.32
2023-04-15T17:27:17.386Z,11.28
2023-04-15T17:29:50.632Z,11.25
2023-04-15T17:32:22.897Z,11.25
2023-04-15T17:34:53.329Z,11.20
2023-04-15T17:37:23.678Z,11.19
2023-04-15T17:39:56.578Z,11.17
2023-04-15T17:42:26.984Z,11.16
2023-04-15T17:44:57.374Z,11.18
2023-04-15T17:47:27.849Z,11.11
2023-04-15T17:49:58.147Z,11.04
2023-04-15T17:52:28.422Z,10.96
2023-04-15T17:55:01.297Z,10.88
2023-04-15T17:57:31.762Z,10.84
2023-04-15T18:00:02.197Z,10.99
2023-04-15T18:02:43.543Z,10.95
2023-04-15T18:05:14.286Z,10.88
2023-04-15T18:07:44.889Z,10.81
2023-04-15T18:10:17.907Z,10.82
2023-04-15T18:12:48.116Z,10.76
2023-04-15T18:15:18.901Z,10.74
2023-04-15T18:17:49.287Z,10.71
2023-04-15T18:20:19.641Z,10.67
2023-04-15T18:22:50.918Z,10.64
2023-04-15T18:25:23.853Z,10.66
2023-04-15T18:27:54.107Z,10.60
2023-04-15T18:30:24.490Z,10.63
2023-04-15T18:32:54.927Z,10.58
2023-04-15T18:35:25.287Z,10.64
2023-04-15T18:37:56.418Z,10.67
2023-04-15T18:40:29.283Z,10.79
2023-04-15T18:43:00.311Z,10.75
2023-04-15T18:45:30.910Z,10.67
2023-04-15T18:48:01.238Z,10.71
2023-04-15T18:50:31.514Z,10.78
2023-04-15T18:53:01.801Z,10.81
2023-04-15T18:55:34.631Z,10.83
2023-04-15T18:58:08.927Z,10.80
2023-04-15T19:00:41.988Z,10.67
2023-04-15T19:03:12.510Z,10.70
2023-04-15T19:05:42.918Z,10.85
2023-04-15T19:08:13.727Z,10.92
2023-04-15T19:10:46.670Z,10.96
2023-04-15T19:13:18.725Z,10.97
2023-04-15T19:15:49.055Z,10.99
2023-04-15T19:18:19.413Z,11.03
2023-04-15T19:20:50.645Z,11.07
2023-04-15T19:23:20.936Z,11.13
2023-04-15T19:25:53.841Z,11.11
2023-04-15T19:28:24.191Z,11.16
2023-04-15T19:30:54.888Z,11.19
2023-04-15T19:33:27.887Z,11.22
2023-04-15T19:36:01.353Z,11.21
2023-04-15T19:38:31.766Z,11.19
2023-04-15T19:41:05.185Z,11.17
2023-04-15T19:43:38.336Z,11.16
2023-04-15T19:46:09.964Z,11.13
2023-04-15T19:48:40.546Z,11.08
2023-04-15T19:51:11.076Z,11.04
2023-04-15T19:53:41.601Z,11.00
2023-04-15T19:56:14.612Z,11.00
2023-04-15T19:58:47.147Z,11.01
2023-04-15T20:01:17.319Z,11.03
2023-04-15T20:03:48.143Z,11.03
2023-04-15T20:06:18.944Z,11.04
2023-04-15T20:08:49.216Z,11.03
2023-04-15T20:11:22.504Z,11.02
2023-04-15T20:13:52.936Z,11.03
2023-04-15T20:16:23.355Z,11.05
2023-04-15T20:18:54.184Z,11.05
2023-04-15T20:21:24.517Z,11.06
2023-04-15T20:23:54.748Z,11.06
2023-04-15T20:26:28.033Z,11.06
2023-04-15T20:28:58.750Z,11.06
2023-04-15T20:31:29.456Z,11.04
2023-04-15T20:34:00.520Z,11.04
2023-04-15T20:36:31.926Z,10.94
2023-04-15T20:39:02.728Z,10.85
2023-04-15T20:41:35.955Z,10.83
2023-04-15T20:44:06.804Z,10.84
2023-04-15T20:46:37.238Z,10.84
2023-04-15T20:49:08.056Z,10.83
2023-04-15T20:51:38.647Z,10.82
2023-04-15T20:54:09.843Z,10.82
2023-04-15T20:56:43.050Z,10.85
2023-04-15T20:59:13.634Z,10.86
2023-04-15T21:01:44.171Z,10.81
2023-04-15T21:04:14.668Z,10.78
2023-04-15T21:06:44.925Z,10.73
2023-04-15T21:09:15.292Z,10.76
2023-04-15T21:14:25.214Z,10.69
2023-04-15T21:16:55.676Z,10.62
2023-04-15T21:19:25.936Z,10.58
2023-04-15T21:21:56.309Z,10.55
2023-04-15T21:24:26.573Z,10.52
2023-04-15T21:26:59.688Z,10.50
2023-04-15T21:29:29.946Z,10.49
2023-04-15T21:32:00.280Z,10.51
2023-04-15T21:34:30.498Z,10.52
2023-04-15T21:37:00.706Z,10.54
2023-04-15T21:39:31.170Z,10.55
2023-04-15T21:42:04.240Z,10.57
2023-04-15T21:44:34.484Z,10.57
2023-04-15T21:47:04.889Z,10.55
2023-04-15T21:49:35.137Z,10.56
2023-04-15T21:52:05.410Z,10.54
2023-04-15T21:54:38.225Z,10.53
2023-04-15T21:57:11.109Z,10.54
2023-04-15T21:59:41.307Z,10.51
2023-04-15T22:02:11.864Z,10.51
2023-04-15T22:04:42.237Z,10.51
2023-04-15T22:07:12.526Z,10.50
2023-04-15T22:09:42.776Z,10.51
2023-04-15T22:12:15.698Z,10.54
2023-04-15T22:14:46.492Z,10.54
2023-04-15T22:17:16.793Z,10.59
2023-04-15T22:19:47.642Z,10.58
2023-04-15T22:22:17.942Z,10.57
2023-04-15T22:24:50.285Z,10.60
2023-04-15T22:27:23.183Z,10.63
2023-04-15T22:29:53.439Z,10.60
2023-04-15T22:32:23.687Z,10.59
2023-04-15T22:34:53.919Z,10.55
2023-04-15T22:37:24.318Z,10.48
2023-04-15T22:39:54.511Z,10.46
2023-04-15T22:42:27.464Z,10.51
2023-04-15T22:44:57.699Z,10.52
2023-04-15T22:47:27.961Z,10.54
2023-04-15T22:49:58.231Z,10.58
2023-04-15T22:52:30.999Z,10.59
2023-04-15T22:55:02.140Z,10.61
2023-04-15T22:57:34.935Z,10.61
2023-04-15T23:00:05.976Z,10.65
2023-04-15T23:02:36.424Z,10.66
2023-04-15T23:05:11.986Z,10.65
2023-04-15T23:07:43.624Z,10.65
2023-04-15T23:10:14.030Z,10.64
2023-04-15T23:12:46.869Z,10.62
2023-04-15T23:15:17.032Z,10.65
2023-04-15T23:17:47.248Z,10.64
2023-04-15T23:20:17.661Z,10.66
2023-04-15T23:22:48.413Z,10.69
2023-04-15T23:25:19.763Z,10.69
2023-04-15T23:27:52.633Z,10.67
2023-04-15T23:30:22.972Z,10.71
2023-04-15T23:32:53.403Z,10.68
2023-04-15T23:35:23.778Z,10.72
2023-04-15T23:37:54.065Z,10.74
2023-04-15T23:40:24.357Z,10.75
2023-04-15T23:42:57.256Z,10.78
2023-04-15T23:45:27.590Z,10.78
2023-04-15T23:47:57.885Z,10.74
2023-04-15T23:50:28.143Z,10.73
2023-04-15T23:52:58.484Z,10.75
2023-04-15T23:55:28.682Z,10.72
2023-04-15T23:58:01.558Z,10.76
